KTVF/TVF METAR and TAF weather

Enter ICAO airport designator
Station Type Date Time Source
KTVF METAR 2021/04/13 05:56 UTC NOAA

KTVF 130556Z AUTO 30015KT 4SM -SN BR OVC008 M03/M04 A2985 RMK AO2 SLP122 P0000 60000 T10281039 10000 21028 58002 FZRANO


Station Type Date Time Source
KTVF Decoded METAR 2021/04/13 05:56 UTC NOAA

Thief River Falls, Thief River Falls Regional Airport, MN, United States (KTVF) 48-04N 096-11W
Apr 13, 2021 - 01:56 AM EDT / 2021.04.13 0556 UTC
Wind: from the WNW (300 degrees) at 17 MPH (15 KT):0
Visibility: 4 mile(s):0
Sky conditions: overcast
Weather: light snow; mist
Precipitation last hour: A trace
Temperature: 27.0 F (-2.8 C)
Windchill: 14 F (-10 C):1
Dew Point: 25.0 F (-3.9 C)
Relative Humidity: 92%
Pressure (altimeter): 29.85 in. Hg (1010 hPa)
Pressure tendency: 0.01 inches (0.2 hPa) lower than three hours ago
ob: KTVF 130556Z AUTO 30015KT 4SM -SN BR OVC008 M03/M04 A2985 RMK AO2 SLP122 P0000 60000 T10281039 10000 21028 58002 FZRANO
cycle: 6

Station Type Date Time Source
KTVF TAF 2021/04/13 06:22 UTC NOAA

TAF KTVF 130520Z 1306/1406 31014KT 2SM -SN BR OVC009
FM131600 33014G22KT 2SM -SN BR OVC008
FM140100 32013KT 4SM -SN OVC008

Example: see airport list